createdAt,value
2018-09-20T00:01:28.694Z,19.10
2018-09-20T00:03:33.647Z,19.00
2018-09-20T00:05:38.576Z,19.00
2018-09-20T00:07:43.684Z,19.00
2018-09-20T00:09:48.693Z,19.00
2018-09-20T00:11:53.943Z,18.90
2018-09-20T00:13:58.868Z,18.90
2018-09-20T00:16:03.815Z,18.80
2018-09-20T00:18:09.225Z,18.90
2018-09-20T00:20:14.137Z,18.90
2018-09-20T00:22:19.156Z,18.80
2018-09-20T00:24:24.001Z,18.80
2018-09-20T00:26:29.089Z,18.80
2018-09-20T00:28:34.421Z,18.80
2018-09-20T00:30:40.018Z,18.80
2018-09-20T00:32:44.817Z,18.70
2018-09-20T00:34:49.605Z,18.70
2018-09-20T00:36:54.455Z,18.60
2018-09-20T00:38:59.158Z,18.60
2018-09-20T00:41:04.465Z,18.60
2018-09-20T00:43:09.464Z,18.60
2018-09-20T00:45:14.314Z,18.50
2018-09-20T00:47:19.146Z,18.50
2018-09-20T00:49:23.944Z,18.40
2018-09-20T00:51:28.707Z,18.40
2018-09-20T00:53:33.439Z,18.40
2018-09-20T00:55:38.188Z,18.40
2018-09-20T00:57:43.030Z,18.30
2018-09-20T00:59:47.829Z,18.30
2018-09-20T01:01:52.746Z,18.30
2018-09-20T01:03:57.568Z,18.20
2018-09-20T01:06:02.522Z,18.30
2018-09-20T01:08:13.836Z,18.30
2018-09-20T01:10:18.681Z,18.20
2018-09-20T01:12:23.644Z,18.20
2018-09-20T01:14:28.440Z,18.20
2018-09-20T01:16:33.319Z,18.20
2018-09-20T01:18:38.140Z,18.20
2018-09-20T01:20:43.232Z,18.20
2018-09-20T01:22:48.003Z,18.10
2018-09-20T01:24:52.903Z,18.10
2018-09-20T01:26:58.117Z,18.00
2018-09-20T01:29:02.928Z,18.00
2018-09-20T01:31:07.746Z,18.00
2018-09-20T01:33:13.069Z,18.00
2018-09-20T01:35:18.328Z,18.00
2018-09-20T01:37:23.228Z,18.00
2018-09-20T01:39:28.079Z,18.00
2018-09-20T01:41:32.906Z,18.00
2018-09-20T01:43:37.707Z,17.90
2018-09-20T01:45:42.583Z,17.90
2018-09-20T01:47:47.373Z,17.90
2018-09-20T01:49:52.262Z,17.80
2018-09-20T01:51:57.150Z,17.90
2018-09-20T01:54:02.090Z,17.90
2018-09-20T01:56:06.974Z,17.90
2018-09-20T01:58:11.731Z,17.80
2018-09-20T02:00:16.528Z,17.80
2018-09-20T02:02:21.437Z,17.70
2018-09-20T02:04:26.433Z,17.70
2018-09-20T02:06:31.213Z,17.70
2018-09-20T02:08:36.216Z,17.70
2018-09-20T02:10:41.373Z,17.70
2018-09-20T02:12:46.262Z,17.60
2018-09-20T02:14:51.228Z,17.60
2018-09-20T02:16:56.978Z,17.60
2018-09-20T02:19:01.862Z,17.50
2018-09-20T02:21:06.835Z,17.50
2018-09-20T02:23:11.722Z,17.50
2018-09-20T02:25:16.564Z,17.50
2018-09-20T02:27:21.431Z,17.50
2018-09-20T02:29:27.180Z,17.40
2018-09-20T02:31:32.203Z,17.40
2018-09-20T02:33:36.915Z,17.40
2018-09-20T02:35:41.941Z,17.30
2018-09-20T02:37:46.727Z,17.30
2018-09-20T02:39:52.500Z,17.30
2018-09-20T02:41:57.646Z,17.30
2018-09-20T02:44:02.499Z,17.20
2018-09-20T02:46:07.417Z,17.20
2018-09-20T02:48:12.553Z,17.10
2018-09-20T02:50:18.270Z,17.10
2018-09-20T02:52:23.351Z,17.20
2018-09-20T02:54:28.317Z,17.20
2018-09-20T02:56:33.147Z,17.20
2018-09-20T02:58:38.033Z,17.20
2018-09-20T03:00:42.906Z,17.20
2018-09-20T03:02:47.756Z,17.20
2018-09-20T03:04:52.592Z,17.20
2018-09-20T03:06:57.508Z,17.20
2018-09-20T03:09:02.338Z,17.20
2018-09-20T03:11:07.196Z,17.20
2018-09-20T03:13:12.169Z,17.10
2018-09-20T03:15:17.104Z,17.10
2018-09-20T03:17:21.863Z,17.10
2018-09-20T03:19:26.771Z,17.20
2018-09-20T03:21:32.755Z,17.10
2018-09-20T03:23:37.876Z,17.20
2018-09-20T03:25:42.785Z,17.10
2018-09-20T03:27:47.658Z,17.10
2018-09-20T03:29:52.753Z,17.10
2018-09-20T03:31:57.861Z,17.10
2018-09-20T03:34:02.761Z,17.10
2018-09-20T03:36:07.895Z,17.10
2018-09-20T03:38:12.858Z,17.20
2018-09-20T03:40:17.765Z,17.10
2018-09-20T03:42:22.954Z,17.20
2018-09-20T03:44:28.261Z,17.10
2018-09-20T03:46:33.243Z,17.10
2018-09-20T03:48:38.130Z,17.20
2018-09-20T03:50:45.334Z,17.10
2018-09-20T03:52:50.101Z,17.10
2018-09-20T03:54:54.905Z,17.10
2018-09-20T03:56:59.773Z,17.10
2018-09-20T03:59:04.602Z,17.10
2018-09-20T04:01:10.407Z,17.10
2018-09-20T04:03:15.314Z,17.00
2018-09-20T04:05:20.194Z,17.00
2018-09-20T04:07:25.100Z,17.00
2018-09-20T04:09:30.040Z,17.00
2018-09-20T04:11:35.004Z,17.00
2018-09-20T04:13:46.520Z,17.00
2018-09-20T04:15:51.499Z,17.00
2018-09-20T04:17:56.265Z,17.00
2018-09-20T04:20:01.260Z,17.00
2018-09-20T04:22:06.855Z,17.00
2018-09-20T04:24:11.748Z,16.90
2018-09-20T04:26:16.817Z,16.90
2018-09-20T04:28:21.870Z,16.90
2018-09-20T04:30:26.609Z,16.90
2018-09-20T04:32:31.486Z,16.90
2018-09-20T04:34:36.377Z,16.80
2018-09-20T04:36:41.308Z,16.90
2018-09-20T04:38:46.068Z,16.90
2018-09-20T04:40:52.147Z,16.90
2018-09-20T04:42:57.948Z,17.00
2018-09-20T04:45:02.844Z,17.00
2018-09-20T04:47:09.105Z,17.00
2018-09-20T04:49:32.339Z,16.90
2018-09-20T04:51:37.135Z,16.90
2018-09-20T04:53:43.507Z,16.80
2018-09-20T04:55:48.558Z,16.80
2018-09-20T04:57:55.742Z,16.80
2018-09-20T05:00:00.768Z,16.80
2018-09-20T05:02:05.590Z,16.80
2018-09-20T05:04:10.449Z,16.70
2018-09-20T05:06:15.563Z,16.70
2018-09-20T05:08:21.598Z,16.70
2018-09-20T05:10:26.598Z,16.70
2018-09-20T05:12:31.557Z,16.70
2018-09-20T05:14:36.819Z,16.70
2018-09-20T05:16:42.337Z,16.70
2018-09-20T05:18:47.469Z,16.70
2018-09-20T05:20:52.607Z,16.70
2018-09-20T05:22:57.518Z,16.70
2018-09-20T05:25:02.836Z,16.80
2018-09-20T05:27:07.797Z,16.80
2018-09-20T05:29:12.809Z,16.70
2018-09-20T05:31:17.682Z,16.70
2018-09-20T05:33:22.749Z,16.70
2018-09-20T05:35:27.737Z,16.70
2018-09-20T05:37:33.417Z,16.70
2018-09-20T05:39:38.283Z,16.70
2018-09-20T05:41:43.338Z,16.70
2018-09-20T05:43:48.257Z,16.70
2018-09-20T05:45:52.945Z,16.60
2018-09-20T05:47:57.779Z,16.70
2018-09-20T05:50:02.729Z,16.70
2018-09-20T05:52:07.775Z,16.70
2018-09-20T05:54:13.023Z,16.70
2018-09-20T05:56:18.164Z,16.70
2018-09-20T05:58:23.072Z,16.60
2018-09-20T06:00:27.936Z,16.70
2018-09-20T06:02:32.844Z,16.70
2018-09-20T06:04:39.783Z,16.70
2018-09-20T06:06:44.590Z,16.70
2018-09-20T06:08:49.395Z,16.80
2018-09-20T06:10:54.552Z,16.80
2018-09-20T06:12:59.756Z,16.80
2018-09-20T06:15:04.933Z,16.80
2018-09-20T06:17:09.921Z,16.90
2018-09-20T06:19:14.809Z,16.90
2018-09-20T06:21:19.737Z,16.90
2018-09-20T06:23:25.257Z,17.00
2018-09-20T06:25:30.192Z,17.00
2018-09-20T06:27:35.526Z,17.00
2018-09-20T06:29:40.731Z,17.10
2018-09-20T06:31:45.792Z,17.10
2018-09-20T06:33:51.141Z,17.20
2018-09-20T06:35:56.647Z,17.40
2018-09-20T06:38:01.535Z,17.50
2018-09-20T06:40:06.548Z,17.70
2018-09-20T06:42:11.372Z,17.80
2018-09-20T06:44:16.462Z,17.90
2018-09-20T06:46:21.725Z,17.90
2018-09-20T06:48:26.840Z,18.00
2018-09-20T06:50:32.052Z,18.00
2018-09-20T06:52:36.943Z,18.00
2018-09-20T06:54:42.155Z,18.10
2018-09-20T06:56:47.016Z,18.10
2018-09-20T06:58:53.148Z,18.10
2018-09-20T07:00:58.499Z,18.20
2018-09-20T07:03:03.471Z,18.20
2018-09-20T07:05:08.397Z,18.20
2018-09-20T07:07:13.211Z,18.40
2018-09-20T07:09:18.210Z,18.40
2018-09-20T07:11:23.242Z,18.60
2018-09-20T07:13:28.225Z,18.60
2018-09-20T07:15:33.126Z,18.50
2018-09-20T07:17:38.393Z,18.60
2018-09-20T07:19:43.370Z,18.80
2018-09-20T07:21:48.262Z,18.90
2018-09-20T07:23:53.538Z,19.00
2018-09-20T07:25:58.661Z,19.20
2018-09-20T07:28:03.564Z,19.20
2018-09-20T07:30:08.539Z,19.30
2018-09-20T07:32:13.332Z,19.40
2018-09-20T07:34:18.307Z,19.50
2018-09-20T07:36:23.271Z,19.50
2018-09-20T07:38:28.437Z,19.70
2018-09-20T07:40:33.528Z,19.80
2018-09-20T07:42:38.433Z,19.80
2018-09-20T07:44:43.328Z,19.90
2018-09-20T07:46:48.204Z,20.10
2018-09-20T07:48:53.241Z,20.20
2018-09-20T07:50:58.038Z,20.30
2018-09-20T07:53:03.027Z,20.40
2018-09-20T07:55:08.665Z,20.60
2018-09-20T07:57:13.819Z,20.70
2018-09-20T07:59:18.619Z,20.80
2018-09-20T08:01:23.545Z,21.00
2018-09-20T08:03:28.426Z,21.10
2018-09-20T08:05:33.262Z,21.10
2018-09-20T08:07:38.124Z,21.20
2018-09-20T08:09:42.994Z,21.30
2018-09-20T08:11:47.920Z,21.40
2018-09-20T08:13:52.873Z,21.40
2018-09-20T08:15:57.775Z,21.50
2018-09-20T08:18:03.034Z,21.50
2018-09-20T08:20:08.155Z,21.40
2018-09-20T08:22:13.149Z,21.40
2018-09-20T08:24:18.009Z,21.30
2018-09-20T08:26:23.145Z,21.30
2018-09-20T08:28:27.943Z,21.30
2018-09-20T08:30:32.798Z,21.40
2018-09-20T08:32:37.795Z,21.50
2018-09-20T08:34:42.719Z,21.40
2018-09-20T08:36:47.644Z,21.40
2018-09-20T08:38:52.633Z,21.40
2018-09-20T08:40:57.514Z,21.50
2018-09-20T08:43:02.315Z,21.50
2018-09-20T08:45:07.651Z,21.50
2018-09-20T08:47:12.506Z,21.50
2018-09-20T08:49:17.579Z,21.50
2018-09-20T08:51:22.837Z,21.50
2018-09-20T08:53:27.701Z,21.50
2018-09-20T08:55:32.507Z,21.60
2018-09-20T08:57:42.436Z,21.60
2018-09-20T08:59:47.521Z,21.60
2018-09-20T09:01:52.536Z,21.70
2018-09-20T09:03:57.448Z,21.80
2018-09-20T09:06:02.547Z,21.80
2018-09-20T09:08:07.740Z,21.90
2018-09-20T09:10:12.651Z,22.00
2018-09-20T09:12:17.532Z,22.00
2018-09-20T09:14:22.438Z,22.00
2018-09-20T09:16:27.497Z,22.20
2018-09-20T09:18:32.294Z,22.40
2018-09-20T09:20:37.467Z,22.40
2018-09-20T09:22:42.498Z,22.50
2018-09-20T09:24:47.359Z,22.50
2018-09-20T09:26:52.307Z,22.60
2018-09-20T09:28:57.699Z,22.70
2018-09-20T09:31:02.950Z,22.70
2018-09-20T09:33:08.179Z,22.70
2018-09-20T09:35:13.128Z,22.70
2018-09-20T09:37:19.076Z,22.90
2018-09-20T09:39:24.347Z,23.00
2018-09-20T09:41:29.305Z,23.20
2018-09-20T09:43:34.266Z,23.30
2018-09-20T09:45:39.173Z,23.40
2018-09-20T09:47:44.162Z,23.40
2018-09-20T09:49:49.196Z,23.40
2018-09-20T09:51:54.437Z,23.40
2018-09-20T09:53:59.475Z,23.40
2018-09-20T09:56:04.305Z,23.30
2018-09-20T09:58:09.706Z,23.30
2018-09-20T10:00:14.714Z,23.30
2018-09-20T10:02:19.747Z,23.50
2018-09-20T10:04:24.609Z,23.50
2018-09-20T10:06:29.656Z,23.70
2018-09-20T10:08:35.165Z,23.80
2018-09-20T10:10:39.975Z,23.80
2018-09-20T10:12:45.706Z,23.90
2018-09-20T10:14:50.648Z,23.80
2018-09-20T10:16:55.525Z,23.90
2018-09-20T10:19:00.412Z,23.80
2018-09-20T10:21:05.302Z,23.80
2018-09-20T10:23:10.229Z,23.80
2018-09-20T10:25:15.333Z,23.90
2018-09-20T10:27:20.491Z,24.00
2018-09-20T10:29:25.554Z,24.00
2018-09-20T10:31:30.528Z,24.00
2018-09-20T10:33:35.342Z,24.00
2018-09-20T10:35:40.549Z,24.00
2018-09-20T10:37:48.210Z,23.90
2018-09-20T10:39:53.064Z,23.90
2018-09-20T10:41:57.873Z,24.00
2018-09-20T10:44:02.883Z,24.20
2018-09-20T10:46:08.010Z,24.20
2018-09-20T10:48:12.787Z,24.20
2018-09-20T10:50:17.849Z,24.20
2018-09-20T10:52:22.645Z,24.10
2018-09-20T10:54:27.537Z,24.00
2018-09-20T10:56:32.538Z,24.00
2018-09-20T10:58:37.349Z,24.10
2018-09-20T11:00:42.264Z,24.10
2018-09-20T11:02:47.136Z,24.10
2018-09-20T11:04:52.069Z,24.30
2018-09-20T11:06:57.272Z,24.20
2018-09-20T11:09:02.182Z,24.30
2018-09-20T11:11:07.170Z,24.30
2018-09-20T11:13:12.119Z,24.40
2018-09-20T11:15:17.087Z,24.30
2018-09-20T11:17:22.279Z,24.40
2018-09-20T11:19:27.266Z,24.40
2018-09-20T11:21:32.427Z,24.50
2018-09-20T11:23:37.331Z,24.80
2018-09-20T11:25:42.366Z,24.80
2018-09-20T11:27:48.200Z,24.70
2018-09-20T11:29:53.341Z,24.60
2018-09-20T11:31:58.448Z,24.60
2018-09-20T11:34:03.355Z,24.60
2018-09-20T11:36:08.579Z,24.60
2018-09-20T11:38:13.433Z,24.70
2018-09-20T11:40:18.772Z,24.70
2018-09-20T11:42:23.681Z,24.90
2018-09-20T11:44:28.590Z,24.90
2018-09-20T11:46:33.490Z,24.70
2018-09-20T11:48:38.562Z,24.70
2018-09-20T11:50:44.233Z,24.80
2018-09-20T11:52:49.080Z,24.70
2018-09-20T11:54:53.828Z,24.70
2018-09-20T11:56:58.793Z,24.80
2018-09-20T11:59:04.163Z,24.90
2018-09-20T12:01:09.084Z,24.90
2018-09-20T12:03:14.068Z,25.20
2018-09-20T12:05:19.218Z,25.20
2018-09-20T12:07:24.205Z,25.10
2018-09-20T12:09:29.311Z,25.00
2018-09-20T12:11:34.897Z,25.00
2018-09-20T12:13:39.842Z,25.00
2018-09-20T12:15:44.800Z,25.10
2018-09-20T12:17:49.725Z,25.00
2018-09-20T12:19:54.715Z,25.00
2018-09-20T12:21:59.662Z,24.90
2018-09-20T12:24:04.482Z,24.90
2018-09-20T12:26:09.330Z,25.10
2018-09-20T12:28:14.105Z,25.10
2018-09-20T12:30:19.321Z,24.90
2018-09-20T12:32:24.494Z,25.00
2018-09-20T12:34:29.528Z,24.90
2018-09-20T12:36:35.519Z,25.00
2018-09-20T12:38:40.961Z,25.10
2018-09-20T12:40:45.909Z,25.30
2018-09-20T12:42:51.049Z,25.30
2018-09-20T12:44:56.181Z,25.30
2018-09-20T12:47:01.175Z,25.40
2018-09-20T12:49:07.154Z,25.50
2018-09-20T12:51:12.726Z,25.40
2018-09-20T12:53:17.902Z,25.40
2018-09-20T12:55:22.862Z,25.50
2018-09-20T12:57:27.935Z,25.70
2018-09-20T12:59:32.914Z,25.60
2018-09-20T13:01:38.799Z,25.50
2018-09-20T13:03:44.094Z,25.50
2018-09-20T13:05:49.693Z,25.50
2018-09-20T13:07:55.126Z,25.80
2018-09-20T13:10:00.158Z,25.80
2018-09-20T13:12:05.451Z,25.90
2018-09-20T13:14:11.785Z,26.00
2018-09-20T13:16:17.003Z,26.00
2018-09-20T13:18:21.951Z,25.90
2018-09-20T13:20:27.162Z,25.90
2018-09-20T13:22:32.513Z,25.90
2018-09-20T13:24:37.561Z,25.80
2018-09-20T13:26:42.470Z,25.70
2018-09-20T13:28:47.441Z,25.60
2018-09-20T13:30:52.493Z,25.70
2018-09-20T13:32:57.518Z,25.60
2018-09-20T13:35:02.541Z,25.50
2018-09-20T13:37:07.519Z,25.50
2018-09-20T13:39:13.397Z,25.60
2018-09-20T13:41:18.502Z,25.80
2018-09-20T13:43:23.546Z,25.80
2018-09-20T13:45:28.607Z,25.70
2018-09-20T13:47:34.510Z,25.70
2018-09-20T13:49:39.362Z,25.80
2018-09-20T13:51:44.358Z,25.80
2018-09-20T13:53:49.554Z,25.80
2018-09-20T13:55:54.427Z,25.80
2018-09-20T13:57:59.458Z,25.80
2018-09-20T14:00:04.455Z,25.90
2018-09-20T14:02:09.666Z,25.90
2018-09-20T14:04:14.578Z,25.90
2018-09-20T14:06:19.669Z,26.10
2018-09-20T14:08:24.713Z,26.20
2018-09-20T14:10:29.771Z,26.30
2018-09-20T14:12:34.747Z,26.20
2018-09-20T14:14:39.791Z,26.10
2018-09-20T14:16:44.703Z,26.10
2018-09-20T14:18:49.596Z,26.30
2018-09-20T14:20:54.649Z,26.10
2018-09-20T14:22:59.590Z,26.10
2018-09-20T14:25:04.877Z,26.20
2018-09-20T14:27:10.158Z,26.30
2018-09-20T14:29:15.360Z,26.40
2018-09-20T14:31:20.124Z,26.40
2018-09-20T14:33:25.044Z,26.40
2018-09-20T14:35:30.137Z,26.20
2018-09-20T14:37:34.982Z,26.20
2018-09-20T14:39:39.883Z,26.20
2018-09-20T14:41:44.865Z,26.30
2018-09-20T14:43:49.875Z,26.30
2018-09-20T14:45:54.688Z,26.30
2018-09-20T14:47:59.656Z,26.40
2018-09-20T14:50:05.033Z,26.50
2018-09-20T14:52:10.337Z,26.40
2018-09-20T14:54:15.198Z,26.40
2018-09-20T14:56:20.075Z,26.50
2018-09-20T14:58:24.875Z,26.70
2018-09-20T15:00:29.806Z,26.60
2018-09-20T15:02:34.703Z,26.70
2018-09-20T15:04:39.520Z,26.70
2018-09-20T15:06:44.352Z,26.60
2018-09-20T15:08:49.176Z,26.60
2018-09-20T15:10:54.217Z,26.60
2018-09-20T15:13:27.756Z,26.50
2018-09-20T15:15:33.028Z,26.50
2018-09-20T15:17:37.975Z,26.50
2018-09-20T15:19:42.912Z,26.60
2018-09-20T15:21:47.839Z,26.80
2018-09-20T15:23:52.798Z,26.80
2018-09-20T15:25:57.653Z,26.70
2018-09-20T15:28:02.495Z,26.90
2018-09-20T15:30:07.995Z,26.80
2018-09-20T15:32:13.073Z,26.80
2018-09-20T15:34:18.028Z,26.70
2018-09-20T15:36:23.229Z,26.70
2018-09-20T15:38:28.239Z,26.60
2018-09-20T15:40:33.245Z,26.60
2018-09-20T15:42:38.055Z,26.60
2018-09-20T15:44:43.148Z,26.70
2018-09-20T15:46:48.239Z,26.60
2018-09-20T15:48:53.341Z,26.50
2018-09-20T15:50:58.299Z,26.50
2018-09-20T15:53:03.588Z,26.60
2018-09-20T15:55:08.700Z,26.60
2018-09-20T15:57:13.591Z,26.50
2018-09-20T15:59:18.626Z,26.50
2018-09-20T16:01:23.766Z,26.50
2018-09-20T16:03:28.695Z,26.40
2018-09-20T16:05:33.753Z,26.50
2018-09-20T16:07:38.847Z,26.40
2018-09-20T16:09:43.670Z,26.50
2018-09-20T16:11:48.722Z,26.50
2018-09-20T16:13:53.746Z,26.40
2018-09-20T16:15:58.677Z,26.40
2018-09-20T16:18:03.574Z,26.30
2018-09-20T16:20:09.336Z,26.20
2018-09-20T16:22:14.537Z,26.20
2018-09-20T16:24:20.001Z,26.10
2018-09-20T16:26:25.031Z,26.10
2018-09-20T16:35:04.314Z,26.00
2018-09-20T16:37:39.707Z,25.90
2018-09-20T16:39:48.446Z,25.70
2018-09-20T16:41:57.388Z,25.60
2018-09-20T16:44:02.179Z,25.60
2018-09-20T16:46:07.367Z,25.50
2018-09-20T16:48:12.328Z,25.40
2018-09-20T16:50:19.477Z,25.60
2018-09-20T16:52:24.409Z,25.50
2018-09-20T16:54:30.709Z,25.40
2018-09-20T16:56:35.807Z,25.40
2018-09-20T16:58:44.650Z,25.30
2018-09-20T17:00:49.771Z,25.30
2018-09-20T17:02:54.793Z,25.20
2018-09-20T17:04:59.668Z,25.20
2018-09-20T17:07:04.595Z,25.10
2018-09-20T17:09:10.168Z,25.20
2018-09-20T17:11:14.938Z,25.30
2018-09-20T17:13:20.373Z,25.10
2018-09-20T17:15:25.566Z,24.90
2018-09-20T17:17:31.657Z,24.80
2018-09-20T17:19:37.924Z,24.70
2018-09-20T17:21:43.084Z,24.60
2018-09-20T17:23:48.420Z,24.50
2018-09-20T17:25:53.749Z,24.50
2018-09-20T17:27:58.912Z,24.40
2018-09-20T17:30:04.169Z,24.30
2018-09-20T17:32:09.228Z,24.30
2018-09-20T17:34:14.555Z,24.20
2018-09-20T17:36:19.904Z,24.10
2018-09-20T17:38:26.150Z,24.00
2018-09-20T17:40:32.372Z,24.00
2018-09-20T17:42:38.778Z,23.90
2018-09-20T17:44:44.164Z,23.80
2018-09-20T17:46:49.423Z,23.70
2018-09-20T17:48:54.553Z,23.60
2018-09-20T17:51:00.273Z,23.50
2018-09-20T17:53:05.468Z,23.50
2018-09-20T17:55:10.907Z,23.40
2018-09-20T17:57:16.860Z,23.40
2018-09-20T17:59:22.023Z,23.30
2018-09-20T18:01:27.107Z,23.20
2018-09-20T18:03:32.243Z,23.20
2018-09-20T18:05:37.201Z,23.10
2018-09-20T18:07:42.899Z,23.10
2018-09-20T18:09:47.953Z,23.00
2018-09-20T18:11:53.315Z,22.90
2018-09-20T18:13:58.585Z,22.90
2018-09-20T18:16:03.603Z,22.90
2018-09-20T18:18:08.745Z,22.80
2018-09-20T18:20:13.929Z,22.80
2018-09-20T18:22:19.056Z,22.80
2018-09-20T18:24:24.317Z,22.80
2018-09-20T18:26:29.535Z,22.70
2018-09-20T18:28:34.568Z,22.70
2018-09-20T18:30:39.671Z,22.70
2018-09-20T18:32:44.696Z,22.60
2018-09-20T18:34:49.645Z,22.60
2018-09-20T18:36:54.553Z,22.60
2018-09-20T18:39:21.567Z,22.60
2018-09-20T18:41:26.483Z,22.60
2018-09-20T18:43:31.462Z,22.60
2018-09-20T18:45:36.454Z,22.50
2018-09-20T18:47:41.409Z,22.50
2018-09-20T18:49:46.338Z,22.50
2018-09-20T18:51:51.361Z,22.40
2018-09-20T18:53:56.476Z,22.40
2018-09-20T18:56:02.214Z,22.40
2018-09-20T18:58:07.472Z,22.40
2018-09-20T19:00:12.819Z,22.40
2018-09-20T19:02:18.621Z,22.40
2018-09-20T19:04:24.903Z,22.30
2018-09-20T19:06:30.158Z,22.20
2018-09-20T19:08:35.167Z,22.20
2018-09-20T19:10:40.185Z,22.20
2018-09-20T19:12:45.730Z,22.10
2018-09-20T19:14:51.017Z,22.10
2018-09-20T19:16:56.029Z,22.10
2018-09-20T19:19:00.953Z,22.10
2018-09-20T19:21:06.866Z,22.20
2018-09-20T19:23:16.014Z,22.20
2018-09-20T19:25:21.762Z,22.10
2018-09-20T19:27:31.019Z,22.10
2018-09-20T19:29:40.263Z,22.10
2018-09-20T19:31:45.417Z,22.10
2018-09-20T19:33:52.836Z,22.10
2018-09-20T19:35:58.274Z,22.10
2018-09-20T19:38:03.491Z,22.00
2018-09-20T19:40:10.104Z,22.00
2018-09-20T19:42:17.509Z,22.00
2018-09-20T19:44:22.706Z,22.00
2018-09-20T19:46:29.304Z,22.00
2018-09-20T19:48:34.443Z,21.90
2018-09-20T19:50:40.086Z,21.90
2018-09-20T19:52:45.385Z,21.90
2018-09-20T19:54:52.372Z,21.90
2018-09-20T19:56:59.012Z,21.90
2018-09-20T19:59:05.677Z,21.80
2018-09-20T20:03:23.026Z,21.80
2018-09-20T20:05:28.022Z,21.80
2018-09-20T20:07:33.903Z,21.80
2018-09-20T20:09:39.753Z,21.70
2018-09-20T20:11:45.338Z,21.80
2018-09-20T20:13:50.355Z,21.80
2018-09-20T20:15:55.782Z,21.80
2018-09-20T20:18:02.124Z,21.80
2018-09-20T20:20:08.391Z,21.80
2018-09-20T20:22:16.296Z,21.80
2018-09-20T20:24:24.586Z,21.80
2018-09-20T20:26:29.551Z,21.80
2018-09-20T20:28:35.249Z,21.80
2018-09-20T20:30:40.369Z,21.70
2018-09-20T20:32:45.642Z,21.70
2018-09-20T20:34:50.646Z,21.70
2018-09-20T20:36:55.883Z,21.70
2018-09-20T20:39:01.007Z,21.70
2018-09-20T20:41:06.084Z,21.70
2018-09-20T20:43:11.124Z,21.60
2018-09-20T20:45:16.437Z,21.60
2018-09-20T20:47:21.283Z,21.60
2018-09-20T20:49:26.203Z,21.60
2018-09-20T20:51:31.204Z,21.60
2018-09-20T20:53:36.546Z,21.70
2018-09-20T20:55:41.438Z,21.60
2018-09-20T20:57:46.540Z,21.60
2018-09-20T20:59:51.437Z,21.60
2018-09-20T21:01:56.500Z,21.60
2018-09-20T21:04:01.534Z,21.50
2018-09-20T21:06:06.621Z,21.50
2018-09-20T21:08:15.117Z,21.50
2018-09-20T21:10:21.459Z,21.50
2018-09-20T21:12:29.950Z,21.40
2018-09-20T21:14:35.031Z,21.40
2018-09-20T21:16:52.037Z,21.40
2018-09-20T21:18:57.265Z,21.40
2018-09-20T21:21:22.300Z,21.30
2018-09-20T21:23:36.783Z,21.30
2018-09-20T21:25:43.189Z,21.30
2018-09-20T21:28:09.025Z,21.30
2018-09-20T21:30:20.033Z,21.30
2018-09-20T21:32:33.310Z,21.30
2018-09-20T21:34:41.763Z,21.30
2018-09-20T21:36:53.304Z,21.30
2018-09-20T21:38:59.513Z,21.30
2018-09-20T21:41:15.801Z,21.40
2018-09-20T21:43:31.480Z,21.30
2018-09-20T21:45:39.517Z,21.20
2018-09-20T21:47:49.921Z,21.20
2018-09-20T21:50:05.196Z,21.20
2018-09-20T21:52:17.219Z,21.20
2018-09-20T21:54:24.635Z,21.20
2018-09-20T21:56:32.995Z,21.20
2018-09-20T21:58:47.239Z,21.30
2018-09-20T22:01:07.706Z,21.20
2018-09-20T22:03:38.303Z,21.20
2018-09-20T22:05:47.212Z,21.20
2018-09-20T22:07:53.766Z,21.10
2018-09-20T22:10:00.969Z,21.20
2018-09-20T22:12:05.924Z,21.20
2018-09-20T22:14:11.544Z,21.10
2018-09-20T22:16:16.434Z,21.10
2018-09-20T22:18:21.448Z,21.10
2018-09-20T22:20:30.498Z,21.00
2018-09-20T22:22:35.561Z,21.00
2018-09-20T22:24:40.881Z,20.90
2018-09-20T22:26:45.959Z,20.90
2018-09-20T22:28:50.930Z,20.90
2018-09-20T22:30:55.809Z,20.90
2018-09-20T22:33:00.638Z,21.00
2018-09-20T22:35:05.992Z,20.90
2018-09-20T22:37:10.889Z,20.90
2018-09-20T22:39:15.797Z,20.90
2018-09-20T22:41:20.681Z,20.90
2018-09-20T22:43:25.774Z,20.90
2018-09-20T22:45:30.658Z,20.90
2018-09-20T22:47:36.017Z,20.80
2018-09-20T22:49:40.849Z,20.80
2018-09-20T22:51:45.738Z,20.80
2018-09-20T22:53:50.769Z,20.80
2018-09-20T22:55:55.619Z,20.80
2018-09-20T22:58:00.469Z,20.70
2018-09-20T23:00:05.553Z,20.70
2018-09-20T23:02:10.589Z,20.60
2018-09-20T23:04:15.546Z,20.60
2018-09-20T23:06:20.387Z,20.60
2018-09-20T23:08:25.267Z,20.70
2018-09-20T23:10:30.227Z,20.70
2018-09-20T23:12:35.392Z,20.70
2018-09-20T23:14:40.502Z,20.60
2018-09-20T23:16:45.410Z,20.60
2018-09-20T23:18:50.195Z,20.60
2018-09-20T23:20:55.141Z,20.60
2018-09-20T23:23:00.163Z,20.50
2018-09-20T23:25:05.156Z,20.50
2018-09-20T23:27:10.022Z,20.50
2018-09-20T23:29:15.182Z,20.50
2018-09-20T23:31:20.116Z,20.50
2018-09-20T23:33:24.961Z,20.50
2018-09-20T23:35:29.828Z,20.50
2018-09-20T23:37:34.605Z,20.50
2018-09-20T23:39:39.718Z,20.50
2018-09-20T23:41:44.490Z,20.60
2018-09-20T23:43:49.212Z,20.50
2018-09-20T23:45:54.005Z,20.50
2018-09-20T23:47:58.917Z,20.50
2018-09-20T23:50:04.008Z,20.50
2018-09-20T23:52:08.877Z,20.60
2018-09-20T23:54:13.908Z,20.60
2018-09-20T23:56:19.000Z,20.70
2018-09-20T23:58:23.991Z,20.80
